Time;durP1;ratioP1;P1;durP2;ratioP2;P2;SDS_P1;SDS_P2;PMS_P1;PMS_P2;Temp;Humidity;BMP_temperature;BMP_pressure;BME280_temperature;BME280_humidity;BME280_pressure;Samples;Min_cycle;Max_cycle;Signal;HPM_P1;HPM_P2
2023/12/04 00:01:23;;;;;;;116.95;70.68;;;;;;;14.11;nan;99009.19;4764500;30;20571;-70
2023/12/04 00:03:53;;;;;;;114.78;68.53;;;;;;;13.97;nan;99012.91;4766241;30;20158;-68
2023/12/04 00:06:23;;;;;;;117.78;71.93;;;;;;;14.24;nan;99019.81;4777314;30;20696;-69
2023/12/04 00:08:53;;;;;;;114.55;71.55;;;;;;;14.31;nan;99014.47;4758621;29;20158;-70
2023/12/04 00:11:22;;;;;;;117.07;72.00;;;;;;;14.30;nan;99020.81;4759275;29;20063;-71
2023/12/04 00:13:52;;;;;;;112.18;71.78;;;;;;;14.28;nan;99026.38;4765466;29;20082;-70
2023/12/04 00:16:22;;;;;;;112.85;71.70;;;;;;;14.36;nan;99028.84;4749790;30;20056;-71
2023/12/04 00:18:51;;;;;;;110.65;70.45;;;;;;;14.50;nan;99037.63;4765650;30;20055;-70
2023/12/04 00:21:21;;;;;;;110.35;71.30;;;;;;;14.50;nan;99039.47;4766104;30;20921;-70
2023/12/04 00:23:51;;;;;;;126.03;74.60;;;;;;;14.55;nan;99037.00;4763957;30;20128;-69
2023/12/04 00:26:20;;;;;;;111.93;70.50;;;;;;;14.48;nan;99030.84;4764299;30;20048;-69
2023/12/04 00:28:50;;;;;;;104.18;68.75;;;;;;;14.39;nan;99031.09;4761900;30;20052;-69
2023/12/04 00:31:20;;;;;;;118.47;75.10;;;;;;;14.38;nan;99028.66;4760846;29;20249;-69
2023/12/04 00:33:49;;;;;;;112.28;72.07;;;;;;;14.37;nan;99027.81;4772438;29;20144;-69
2023/12/04 00:36:19;;;;;;;117.45;72.30;;;;;;;14.47;nan;99038.03;4776916;29;20063;-69
2023/12/04 00:38:49;;;;;;;113.05;72.05;;;;;;;14.42;nan;99037.03;4781785;30;20062;-70
2023/12/04 00:41:18;;;;;;;114.88;71.97;;;;;;;14.35;nan;99035.19;4760161;30;20063;-69
2023/12/04 00:43:48;;;;;;;118.78;74.68;;;;;;;14.41;nan;99044.22;4766167;30;20456;-70
2023/12/04 00:46:18;;;;;;;108.63;74.60;;;;;;;14.28;nan;99034.38;4769783;29;20051;-69
2023/12/04 00:48:48;;;;;;;114.07;73.63;;;;;;;14.32;nan;99040.09;4763702;29;20051;-69
2023/12/04 00:51:18;;;;;;;115.72;74.68;;;;;;;14.33;nan;99042.56;4765700;29;20047;-70
2023/12/04 00:53:48;;;;;;;112.38;74.70;;;;;;;14.36;nan;99042.16;4764276;29;20548;-69
2023/12/04 00:56:19;;;;;;;115.50;75.40;;;;;;;14.35;nan;99045.84;4765899;29;20629;-70
2023/12/04 00:58:49;;;;;;;112.45;74.18;;;;;;;14.31;nan;99036.59;4760751;29;20062;-69
2023/12/04 01:01:19;;;;;;;117.80;75.53;;;;;;;14.37;nan;99043.81;4762689;29;20052;-70
2023/12/04 01:03:49;;;;;;;118.57;76.30;;;;;;;14.36;nan;99046.69;4765525;29;20507;-69
2023/12/04 01:06:22;;;;;;;111.18;76.53;;;;;;;14.35;nan;99051.19;4764126;29;20067;-70
2023/12/04 01:08:52;;;;;;;;;;;;;;;14.43;nan;99060.78;4764448;29;20632;-70
2023/12/04 01:11:23;;;;;;;116.88;75.43;;;;;;;14.39;nan;99056.91;4764348;29;19929;-70
2023/12/04 01:13:53;;;;;;;118.90;77.88;;;;;;;14.37;nan;99075.78;4777790;30;20063;-70
2023/12/04 01:16:22;;;;;;;128.38;80.80;;;;;;;14.40;nan;99071.88;4770265;30;20124;-70
2023/12/04 01:18:51;;;;;;;118.53;78.85;;;;;;;14.36;nan;99081.31;4763981;30;20062;-70
2023/12/04 01:21:23;;;;;;;122.13;81.25;;;;;;;14.31;nan;99079.25;4764853;30;20932;-70
2023/12/04 01:23:52;;;;;;;118.85;80.40;;;;;;;14.31;nan;99089.91;4773633;29;20091;-70
2023/12/04 01:26:21;;;;;;;115.53;78.55;;;;;;;14.41;nan;99091.34;4767837;30;20163;-70
2023/12/04 01:28:51;;;;;;;130.40;82.88;;;;;;;14.49;nan;99096.47;4763321;30;20055;-70
2023/12/04 01:31:21;;;;;;;126.40;81.53;;;;;;;14.38;nan;99089.94;4764107;30;20552;-70
2023/12/04 01:33:50;;;;;;;125.82;81.82;;;;;;;14.37;nan;99099.78;4765976;30;20086;-70
2023/12/04 01:36:20;;;;;;;121.82;83.82;;;;;;;14.43;nan;99105.31;4760078;30;20146;-70
2023/12/04 01:38:49;;;;;;;129.23;84.78;;;;;;;14.45;nan;99095.22;4763353;30;20062;-70
2023/12/04 01:41:19;;;;;;;119.75;81.97;;;;;;;14.49;nan;99101.78;4762972;30;20080;-70
2023/12/04 01:43:48;;;;;;;130.25;85.07;;;;;;;14.44;nan;99104.25;4770517;30;20051;-70
2023/12/04 01:46:18;;;;;;;129.63;85.85;;;;;;;14.43;nan;99105.31;4777526;29;20063;-71
2023/12/04 01:48:49;;;;;;;129.30;87.20;;;;;;;14.41;nan;99116.16;4781161;29;20047;-70
2023/12/04 01:51:20;;;;;;;124.65;84.45;;;;;;;14.34;nan;99112.63;4779241;29;20059;-69
2023/12/04 01:53:50;;;;;;;136.13;88.18;;;;;;;14.35;nan;99123.13;4763039;30;20155;-70
2023/12/04 01:56:20;;;;;;;129.18;79.18;;;;;;;14.37;nan;99126.41;4767445;30;20059;-70
2023/12/04 01:58:50;;;;;;;125.82;84.00;;;;;;;14.35;nan;99131.13;4762507;30;20055;-70
2023/12/04 02:01:21;;;;;;;118.85;83.38;;;;;;;14.41;nan;99126.00;4761117;30;20070;-70
2023/12/04 02:03:50;;;;;;;125.70;82.32;;;;;;;14.49;nan;99126.59;4754737;30;20452;-70
2023/12/04 02:06:20;;;;;;;143.90;88.38;;;;;;;14.48;nan;99132.13;4765686;29;20087;-70
2023/12/04 02:08:50;;;;;;;126.28;84.28;;;;;;;14.45;nan;99132.53;4763675;30;20060;-71
2023/12/04 02:11:19;;;;;;;127.57;86.07;;;;;;;14.38;nan;99130.69;4762231;29;20279;-69
2023/12/04 02:13:49;;;;;;;121.22;84.07;;;;;;;14.31;nan;99139.69;4780351;30;20070;-70
2023/12/04 02:16:20;;;;;;;125.57;83.07;;;;;;;14.25;nan;99140.53;4762558;29;20079;-70
2023/12/04 02:18:49;;;;;;;120.78;83.95;;;;;;;14.32;nan;99142.16;4761821;30;20135;-69
2023/12/04 02:21:19;;;;;;;132.27;84.20;;;;;;;14.54;nan;99149.97;4761879;30;20061;-70
2023/12/04 02:23:53;;;;;;;131.15;86.28;;;;;;;14.74;nan;99150.75;4762581;30;20623;-71
2023/12/04 02:26:35;;;;;;;128.02;86.85;;;;;;;14.69;nan;99159.38;4754950;30;20150;-70
2023/12/04 02:29:11;;;;;;;128.32;86.07;;;;;;;14.80;nan;99157.91;4742316;30;20401;-71
2023/12/04 02:31:43;;;;;;;131.60;87.05;;;;;;;15.02;nan;99161.97;4758725;29;20479;-70
2023/12/04 02:34:15;;;;;;;129.35;85.10;;;;;;;15.10;nan;99164.41;4764401;30;20143;-70
2023/12/04 02:36:45;;;;;;;131.18;88.40;;;;;;;15.33;nan;99166.59;4761116;30;20055;-70
2023/12/04 02:39:15;;;;;;;133.38;87.28;;;;;;;15.40;nan;99175.38;4757297;29;20217;-70
2023/12/04 02:41:45;;;;;;;135.05;88.82;;;;;;;15.35;nan;99172.53;4758092;30;20062;-70
2023/12/04 02:44:14;;;;;;;126.82;89.22;;;;;;;15.25;nan;99183.66;4764714;30;20060;-71
2023/12/04 02:46:44;;;;;;;137.57;92.38;;;;;;;15.38;nan;99185.47;4764859;30;20051;-70
2023/12/04 02:49:13;;;;;;;141.20;89.93;;;;;;;15.54;nan;99190.34;4763920;30;20815;-70
2023/12/04 02:51:42;;;;;;;138.48;91.85;;;;;;;15.69;nan;99192.75;4757707;30;20048;-70
2023/12/04 02:54:12;;;;;;;138.02;91.45;;;;;;;15.72;nan;99200.31;4778776;30;20454;-70
2023/12/04 02:56:41;;;;;;;139.05;89.43;;;;;;;15.66;nan;99199.34;4768944;29;20102;-70
2023/12/04 02:59:11;;;;;;;149.13;94.28;;;;;;;15.74;nan;99203.59;4759987;30;20451;-71
2023/12/04 03:01:40;;;;;;;160.75;97.88;;;;;;;15.52;nan;99199.59;4756091;29;20144;-70
2023/12/04 03:04:10;;;;;;;147.25;95.10;;;;;;;15.48;nan;99212.53;4772689;29;20063;-70
2023/12/04 03:06:39;;;;;;;142.43;93.53;;;;;;;15.62;nan;99218.66;4763006;30;20043;-70
2023/12/04 03:09:09;;;;;;;133.93;94.22;;;;;;;15.87;nan;99216.88;4760919;30;20064;-70
2023/12/04 03:11:41;;;;;;;150.45;96.00;;;;;;;16.05;nan;99224.19;4761212;29;20051;-71
2023/12/04 03:14:11;;;;;;;146.60;96.60;;;;;;;15.97;nan;99221.78;4756003;29;20800;-71
2023/12/04 03:16:41;;;;;;;145.50;95.03;;;;;;;16.25;nan;99221.38;4760022;30;20067;-71
2023/12/04 03:19:10;;;;;;;143.93;94.70;;;;;;;16.37;nan;99231.19;4759825;29;20063;-71
2023/12/04 03:21:40;;;;;;;145.40;94.65;;;;;;;16.40;nan;99233.41;4763655;30;20563;-71
2023/12/04 03:24:09;;;;;;;140.65;94.68;;;;;;;16.50;nan;99238.28;4779363;30;20066;-70
2023/12/04 03:26:38;;;;;;;147.27;98.75;;;;;;;16.58;nan;99241.53;4760384;30;20159;-71
2023/12/04 03:29:08;;;;;;;141.85;100.57;;;;;;;16.75;nan;99249.81;4750878;30;20063;-71
2023/12/04 03:31:39;;;;;;;140.48;97.00;;;;;;;16.64;nan;99250.53;4744977;30;20052;-71
2023/12/04 03:34:09;;;;;;;149.07;98.78;;;;;;;16.74;nan;99252.72;4779289;29;20089;-70
2023/12/04 03:36:38;;;;;;;149.63;100.75;;;;;;;16.75;nan;99254.34;4768955;29;20055;-71
2023/12/04 03:39:08;;;;;;;163.48;103.53;;;;;;;16.77;nan;99253.13;4745911;30;20075;-70
2023/12/04 03:41:37;;;;;;;152.85;102.95;;;;;;;16.88;nan;99252.38;4761057;29;20051;-71
2023/12/04 03:44:07;;;;;;;144.60;101.38;;;;;;;17.26;nan;99257.56;4778761;29;20087;-71
2023/12/04 03:46:36;;;;;;;154.73;105.60;;;;;;;17.81;nan;99266.47;4772769;29;20094;-72
2023/12/04 03:49:06;;;;;;;145.00;103.65;;;;;;;18.42;nan;99274.28;4762167;30;20146;-71
2023/12/04 03:51:35;;;;;;;154.57;105.43;;;;;;;19.33;nan;99272.19;4761732;30;20055;-71
2023/12/04 03:54:05;;;;;;;159.60;107.97;;;;;;;19.99;nan;99282.50;4761121;29;20067;-71
2023/12/04 03:56:34;;;;;;;150.35;101.95;;;;;;;20.07;nan;99282.94;4771628;29;20369;-72
2023/12/04 03:59:04;;;;;;;139.45;96.70;;;;;;;20.84;nan;99287.84;4781277;29;20063;-69
2023/12/04 04:01:33;;;;;;;123.60;92.13;;;;;;;21.72;nan;99289.69;4766515;30;20431;-72
2023/12/04 04:04:03;;;;;;;130.82;93.80;;;;;;;21.50;nan;99300.44;4765108;30;20325;-71
2023/12/04 04:06:33;;;;;;;132.82;95.22;;;;;;;21.45;nan;99303.88;4779672;29;20055;-70
2023/12/04 04:09:02;;;;;;;121.38;92.72;;;;;;;21.50;nan;99309.34;4763494;30;20069;-69
2023/12/04 04:11:32;;;;;;;133.82;92.93;;;;;;;22.14;nan;99317.75;4763529;30;20408;-71
2023/12/04 04:14:01;;;;;;;128.10;89.68;;;;;;;22.64;nan;99311.25;4776230;29;20116;-70
2023/12/04 04:16:31;;;;;;;124.20;89.35;;;;;;;22.58;nan;99321.19;4773795;30;20104;-70
2023/12/04 04:19:01;;;;;;;97.95;68.85;;;;;;;22.22;nan;99330.78;4781063;29;20062;-70
2023/12/04 04:21:30;;;;;;;110.80;84.85;;;;;;;22.15;nan;99332.88;4768885;29;20058;-70
2023/12/04 04:24:00;;;;;;;120.20;86.20;;;;;;;22.41;nan;99328.56;4760320;30;20060;-70
2023/12/04 04:26:29;;;;;;;117.90;86.63;;;;;;;22.32;nan;99333.59;4763743;30;20051;-70
2023/12/04 04:28:59;;;;;;;123.82;86.03;;;;;;;22.35;nan;99332.25;4758441;30;20117;-70
2023/12/04 04:31:29;;;;;;;127.25;92.93;;;;;;;22.50;nan;99334.31;4757159;30;20054;-70
2023/12/04 04:33:58;;;;;;;142.20;98.88;;;;;;;22.25;nan;99338.38;4751207;30;20066;-70
2023/12/04 04:36:28;;;;;;;148.52;108.25;;;;;;;22.35;nan;99338.47;4760916;30;20087;-70
2023/12/04 04:38:58;;;;;;;129.82;94.68;;;;;;;22.46;nan;99328.63;4760848;30;20052;-70
2023/12/04 04:41:27;;;;;;;154.35;114.82;;;;;;;22.15;nan;99340.13;4765703;29;20615;-70
2023/12/04 04:43:57;;;;;;;166.98;115.70;;;;;;;21.57;nan;99330.72;4752647;29;20201;-69
2023/12/04 04:46:28;;;;;;;185.15;123.97;;;;;;;21.61;nan;99329.16;4751938;30;20157;-70
2023/12/04 04:48:58;;;;;;;193.30;124.70;;;;;;;21.64;nan;99334.06;4751996;29;20385;-70
2023/12/04 04:51:29;;;;;;;203.60;128.02;;;;;;;21.50;nan;99335.50;4769284;29;20083;-70
2023/12/04 04:53:58;;;;;;;212.65;140.45;;;;;;;21.43;nan;99334.81;4756155;29;20742;-70
2023/12/04 04:56:28;;;;;;;280.95;152.57;;;;;;;21.03;nan;99330.41;4750162;30;20109;-70
2023/12/04 04:58:58;;;;;;;253.00;161.75;;;;;;;21.15;nan;99341.16;4762628;30;20134;-71
2023/12/04 05:01:27;;;;;;;270.38;167.13;;;;;;;21.26;nan;99334.84;4744768;30;20481;-71
2023/12/04 05:03:57;;;;;;;270.83;176.63;;;;;;;21.05;nan;99332.88;4746140;30;20058;-75
2023/12/04 05:06:26;;;;;;;216.00;146.88;;;;;;;21.14;nan;99341.41;4745563;30;20054;-73
2023/12/04 05:08:56;;;;;;;303.42;198.95;;;;;;;20.78;nan;99342.63;4738497;30;20052;-74
2023/12/04 05:11:26;;;;;;;219.27;145.68;;;;;;;20.79;nan;99338.91;4743773;30;20048;-74
2023/12/04 05:13:56;;;;;;;286.50;190.50;;;;;;;20.97;nan;99328.72;4745935;30;20158;-72
2023/12/04 05:16:25;;;;;;;366.35;243.05;;;;;;;20.98;nan;99337.59;4757869;30;20060;-68
2023/12/04 05:18:55;;;;;;;370.02;242.48;;;;;;;20.70;nan;99332.28;4744366;30;20151;-69
2023/12/04 05:21:25;;;;;;;361.63;237.38;;;;;;;20.59;nan;99339.34;4742048;30;20055;-69
2023/12/04 05:23:55;;;;;;;343.65;226.48;;;;;;;20.71;nan;99325.84;4733148;30;20048;-69
2023/12/04 05:26:28;;;;;;;375.73;249.15;;;;;;;20.69;nan;99328.75;4742466;30;20751;-68
2023/12/04 05:28:57;;;;;;;350.75;234.90;;;;;;;20.76;nan;99324.03;4743454;30;20535;-67
2023/12/04 05:31:27;;;;;;;395.80;257.17;;;;;;;20.77;nan;99324.84;4742830;30;20079;-68
2023/12/04 05:33:56;;;;;;;364.20;241.50;;;;;;;20.80;nan;99319.00;4743075;30;20067;-69
2023/12/04 05:36:27;;;;;;;399.48;257.40;;;;;;;20.65;nan;99311.47;4743378;30;20163;-69
2023/12/04 05:38:57;;;;;;;304.15;208.18;;;;;;;20.80;nan;99317.09;4743173;30;20109;-68
2023/12/04 05:41:28;;;;;;;378.02;243.13;;;;;;;20.80;nan;99309.03;4726290;30;20041;-69
2023/12/04 05:43:58;;;;;;;353.40;237.18;;;;;;;20.51;nan;99315.50;4744499;30;20217;-69
2023/12/04 05:46:27;;;;;;;330.67;225.57;;;;;;;20.70;nan;99313.44;4744119;30;20137;-68
2023/12/04 05:48:57;;;;;;;369.10;239.70;;;;;;;20.80;nan;99309.03;4745784;30;20055;-68
2023/12/04 05:51:26;;;;;;;332.15;219.25;;;;;;;20.91;nan;99310.00;4740421;30;20078;-68
2023/12/04 05:53:58;;;;;;;309.42;206.90;;;;;;;21.08;nan;99316.22;4739375;30;20052;-71
2023/12/04 05:56:27;;;;;;;322.60;216.63;;;;;;;21.15;nan;99308.84;4744326;30;20062;-71
2023/12/04 05:58:57;;;;;;;272.52;186.25;;;;;;;21.16;nan;99310.44;4748589;30;20933;-70
2023/12/04 06:01:27;;;;;;;253.43;165.55;;;;;;;21.25;nan;99300.88;4743354;30;20051;-70
2023/12/04 06:03:56;;;;;;;216.05;141.50;;;;;;;21.11;nan;99296.06;4754705;29;20048;-68
2023/12/04 06:06:27;;;;;;;217.23;139.50;;;;;;;21.01;nan;99292.16;4741557;30;20064;-70
2023/12/04 06:08:56;;;;;;;195.70;125.45;;;;;;;21.07;nan;99298.41;4745259;30;20817;-69
2023/12/04 06:11:26;;;;;;;146.55;100.22;;;;;;;21.11;nan;99291.47;4743618;29;20200;-70
2023/12/04 06:13:55;;;;;;;129.13;79.43;;;;;;;21.14;nan;99292.91;4757752;29;20163;-70
2023/12/04 06:16:25;;;;;;;124.75;80.88;;;;;;;21.16;nan;99291.59;4738345;30;20047;-68
2023/12/04 06:18:55;;;;;;;106.15;72.90;;;;;;;21.09;nan;99285.53;4734747;30;20731;-68
2023/12/04 06:21:24;;;;;;;107.38;70.97;;;;;;;21.04;nan;99282.75;4737896;29;20056;-67
2023/12/04 06:23:54;;;;;;;103.78;67.43;;;;;;;21.40;nan;99292.22;4754913;29;20153;-68
2023/12/04 06:26:24;;;;;;;87.35;59.00;;;;;;;21.47;nan;99277.50;4759011;29;20047;-68
2023/12/04 06:28:54;;;;;;;79.38;52.67;;;;;;;21.59;nan;99281.97;4767062;29;20721;-69
2023/12/04 06:31:24;;;;;;;83.40;52.03;;;;;;;21.61;nan;99275.25;4764499;29;20423;-69
2023/12/04 06:33:54;;;;;;;67.78;44.40;;;;;;;21.49;nan;99280.75;4756985;30;20060;-70
2023/12/04 06:36:25;;;;;;;69.40;43.63;;;;;;;21.52;nan;99274.03;4762258;30;20473;-70
2023/12/04 06:38:56;;;;;;;64.85;43.85;;;;;;;21.69;nan;99280.19;4764924;29;20844;-70
2023/12/04 06:41:26;;;;;;;63.20;40.72;;;;;;;21.76;nan;99280.84;4758759;30;20056;-70
2023/12/04 06:43:55;;;;;;;61.83;40.85;;;;;;;21.63;nan;99275.00;4764987;30;20058;-71
2023/12/04 06:46:31;;;;;;;66.15;42.63;;;;;;;21.79;nan;99282.22;4761728;30;20051;-70
2023/12/04 06:49:01;;;;;;;72.30;46.75;;;;;;;21.74;nan;99274.06;4760670;30;20497;-72
2023/12/04 06:51:31;;;;;;;70.20;48.17;;;;;;;21.76;nan;99271.94;4760731;29;20154;-71
2023/12/04 06:54:01;;;;;;;80.65;50.63;;;;;;;21.74;nan;99263.28;4761412;30;20047;-71
2023/12/04 06:56:30;;;;;;;85.03;52.28;;;;;;;21.76;nan;99256.56;4761649;30;20056;-70
2023/12/04 06:59:00;;;;;;;92.57;56.88;;;;;;;21.74;nan;99268.66;4759172;30;20136;-71
2023/12/04 07:01:29;;;;;;;93.22;57.15;;;;;;;21.68;nan;99265.13;4762083;29;20062;-71
2023/12/04 07:03:59;;;;;;;87.68;54.42;;;;;;;21.53;nan;99256.81;4759466;30;20063;-71
2023/12/04 07:06:29;;;;;;;89.45;54.90;;;;;;;21.40;nan;99249.09;4759841;30;20154;-71
2023/12/04 07:08:58;;;;;;;92.40;56.05;;;;;;;21.65;nan;99244.03;4760334;30;20044;-71
2023/12/04 07:11:28;;;;;;;86.25;55.25;;;;;;;21.93;nan;99248.44;4760150;29;20051;-71
2023/12/04 07:13:57;;;;;;;90.70;52.88;;;;;;;21.96;nan;99239.84;4763619;30;20060;-71
2023/12/04 07:16:27;;;;;;;91.72;54.42;;;;;;;21.70;nan;99241.41;4763509;30;20050;-71
2023/12/04 07:18:57;;;;;;;87.75;53.53;;;;;;;21.78;nan;99238.25;4762895;30;20079;-70
2023/12/04 07:21:27;;;;;;;84.60;52.63;;;;;;;21.55;nan;99238.53;4756686;30;20067;-70
2023/12/04 07:23:56;;;;;;;86.32;52.92;;;;;;;21.59;nan;99228.06;4757407;29;20186;-71
2023/12/04 07:26:26;;;;;;;81.03;51.75;;;;;;;21.74;nan;99230.91;4758825;29;20052;-71
2023/12/04 07:28:55;;;;;;;91.95;54.28;;;;;;;21.91;nan;99228.94;4763135;29;20063;-71
2023/12/04 07:31:26;;;;;;;89.93;52.97;;;;;;;21.75;nan;99216.38;4760117;29;20067;-70
2023/12/04 07:33:56;;;;;;;86.05;52.72;;;;;;;21.75;nan;99213.69;4760952;29;20063;-71
2023/12/04 07:36:26;;;;;;;88.80;52.38;;;;;;;21.97;nan;99211.78;4764954;29;20059;-70
2023/12/04 07:38:56;;;;;;;83.72;52.08;;;;;;;21.96;nan;99215.56;4761072;30;20693;-70
2023/12/04 07:41:25;;;;;;;84.30;50.83;;;;;;;22.10;nan;99214.09;4765204;30;20071;-63
2023/12/04 07:43:54;;;;;;;82.35;50.92;;;;;;;22.03;nan;99218.06;4764574;30;20414;-64
2023/12/04 07:46:25;;;;;;;82.38;49.58;;;;;;;22.07;nan;99205.69;4765102;29;20518;-63
2023/12/04 07:48:55;;;;;;;70.72;46.78;;;;;;;21.99;nan;99211.56;4761961;30;20059;-64
2023/12/04 07:51:25;;;;;;;67.15;44.65;;;;;;;22.04;nan;99207.00;4761108;29;20201;-64
2023/12/04 07:53:54;;;;;;;101.85;48.65;;;;;;;22.16;nan;99206.88;4769591;29;20067;-64
2023/12/04 07:56:24;;;;;;;80.45;46.17;;;;;;;22.22;nan;99201.25;4763840;29;20072;-64
2023/12/04 07:58:53;;;;;;;71.38;41.90;;;;;;;22.32;nan;99204.06;4770543;30;20047;-63
2023/12/04 08:01:24;;;;;;;53.67;36.45;;;;;;;22.18;nan;99199.31;4762168;29;20504;-63
2023/12/04 08:03:54;;;;;;;53.72;36.92;;;;;;;22.18;nan;99202.84;4770203;29;20070;-63
2023/12/04 08:06:24;;;;;;;51.08;34.33;;;;;;;22.27;nan;99195.09;4776721;29;20095;-64
2023/12/04 08:08:54;;;;;;;67.90;36.75;;;;;;;22.36;nan;99190.84;4765900;30;20055;-63
2023/12/04 08:11:24;;;;;;;51.13;33.85;;;;;;;22.32;nan;99187.03;4749697;29;20121;-64
2023/12/04 08:13:53;;;;;;;51.53;34.47;;;;;;;22.38;nan;99192.25;4776184;29;20379;-64
2023/12/04 08:16:22;;;;;;;49.78;31.35;;;;;;;22.23;nan;99180.47;4775232;29;20070;-64
2023/12/04 08:18:52;;;;;;;45.67;30.67;;;;;;;22.29;nan;99177.59;4769468;30;20058;-64
2023/12/04 08:21:22;;;;;;;40.78;29.48;;;;;;;22.37;nan;99174.41;4763904;30;20059;-63
2023/12/04 08:23:51;;;;;;;40.67;27.95;;;;;;;22.35;nan;99176.53;4776112;29;20070;-63
2023/12/04 08:26:24;;;;;;;26.33;19.10;;;;;;;22.22;nan;99182.38;4780508;29;20063;-63
2023/12/04 08:28:53;;;;;;;;;;;;;;;22.18;nan;99172.34;4769739;29;20056;-63
2023/12/04 08:31:23;;;;;;;24.52;17.25;;;;;;;22.30;nan;99173.81;4764328;30;19974;-64
2023/12/04 08:33:53;;;;;;;28.23;18.08;;;;;;;22.10;nan;99168.22;4771906;30;20062;-64
2023/12/04 08:36:22;;;;;;;29.08;19.52;;;;;;;22.02;nan;99168.69;4749186;29;20044;-64
2023/12/04 08:38:53;;;;;;;28.90;19.77;;;;;;;21.98;nan;99154.09;4772949;29;20051;-64
2023/12/04 08:41:22;;;;;;;30.60;20.38;;;;;;;22.07;nan;99157.97;4753579;30;20063;-64
2023/12/04 08:43:51;;;;;;;28.35;18.80;;;;;;;22.22;nan;99163.47;4768364;29;20511;-64
2023/12/04 08:46:21;;;;;;;33.05;21.15;;;;;;;22.42;nan;99151.22;4769399;29;20066;-63
2023/12/04 08:48:50;;;;;;;34.92;20.58;;;;;;;22.38;nan;99151.75;4765455;29;20051;-64
2023/12/04 08:51:20;;;;;;;31.80;22.25;;;;;;;22.33;nan;99154.41;4781002;30;20051;-64
2023/12/04 08:53:49;;;;;;;28.77;18.90;;;;;;;22.31;nan;99151.13;4769128;30;20099;-65
2023/12/04 08:56:19;;;;;;;37.78;19.40;;;;;;;22.17;nan;99151.84;4762563;30;20142;-63
2023/12/04 08:58:57;;;;;;;30.38;18.45;;;;;;;22.35;nan;99151.44;4768207;30;20048;-63
2023/12/04 09:01:27;;;;;;;27.83;19.85;;;;;;;22.27;nan;99141.94;4762912;30;20058;-63
2023/12/04 09:03:56;;;;;;;26.98;19.27;;;;;;;22.28;nan;99140.06;4763551;30;20150;-64
2023/12/04 09:06:26;;;;;;;26.33;17.25;;;;;;;22.24;nan;99130.84;4772120;29;20456;-64
2023/12/04 09:08:58;;;;;;;30.35;17.73;;;;;;;22.34;nan;99139.03;4773344;29;20152;-64
2023/12/04 09:11:32;;;;;;;26.15;17.63;;;;;;;22.44;nan;99130.19;4774000;29;20372;-64
2023/12/04 09:14:02;;;;;;;25.63;18.08;;;;;;;22.46;nan;99122.66;4768009;30;20069;-64
2023/12/04 09:16:31;;;;;;;28.00;18.52;;;;;;;22.45;nan;99124.53;4775630;29;20066;-64
2023/12/04 09:19:01;;;;;;;31.10;19.40;;;;;;;22.31;nan;99116.06;4767956;30;20059;-64
2023/12/04 09:21:30;;;;;;;30.83;20.23;;;;;;;22.33;nan;99115.81;4762610;30;20051;-64
2023/12/04 09:24:00;;;;;;;31.73;21.42;;;;;;;22.32;nan;99117.69;4778739;29;20067;-64
2023/12/04 09:26:30;;;;;;;30.98;21.35;;;;;;;22.28;nan;99119.28;4779417;29;20051;-64
2023/12/04 09:28:59;;;;;;;36.78;19.10;;;;;;;22.22;nan;99112.19;4767664;29;20056;-64
2023/12/04 09:31:29;;;;;;;31.92;21.60;;;;;;;22.13;nan;99110.25;4754009;30;20591;-64
2023/12/04 09:33:58;;;;;;;29.75;20.40;;;;;;;22.23;nan;99119.22;4773164;29;20066;-64
2023/12/04 09:36:29;;;;;;;31.85;23.15;;;;;;;22.09;nan;99111.81;4777476;29;20085;-63
2023/12/04 09:38:59;;;;;;;44.40;22.67;;;;;;;22.07;nan;99106.69;4768575;29;20055;-64
2023/12/04 09:41:28;;;;;;;34.85;22.20;;;;;;;22.14;nan;99101.06;4762547;30;20052;-63
2023/12/04 09:43:58;;;;;;;30.10;20.33;;;;;;;22.25;nan;99102.78;4775615;29;20066;-64
2023/12/04 09:46:28;;;;;;;32.42;20.27;;;;;;;22.20;nan;99103.56;4768040;29;20059;-63
2023/12/04 09:48:58;;;;;;;31.65;21.17;;;;;;;22.12;nan;99104.03;4768047;29;20047;-63
2023/12/04 09:51:28;;;;;;;33.25;21.40;;;;;;;22.14;nan;99101.06;4764827;29;20059;-63
2023/12/04 09:54:03;;;;;;;31.65;21.27;;;;;;;22.16;nan;99096.25;4770589;29;20064;-63
2023/12/04 09:56:34;;;;;;;29.77;21.50;;;;;;;22.14;nan;99092.97;4762917;29;20151;-63
2023/12/04 09:59:07;;;;;;;36.15;22.33;;;;;;;22.12;nan;99084.34;4776353;29;20051;-63
2023/12/04 10:01:38;;;;;;;33.50;21.42;;;;;;;22.11;nan;99083.53;4778454;29;20063;-64
2023/12/04 10:04:09;;;;;;;42.97;25.33;;;;;;;22.10;nan;99075.69;4766496;29;20170;-64
2023/12/04 10:06:38;;;;;;;40.35;23.67;;;;;;;21.97;nan;99065.31;4764506;30;20055;-63
2023/12/04 10:09:11;;;;;;;35.15;23.33;;;;;;;21.97;nan;99063.44;4775620;29;20163;-64
2023/12/04 10:11:42;;;;;;;39.77;23.03;;;;;;;21.93;nan;99062.34;4780305;29;20126;-64
2023/12/04 10:14:30;;;;;;;33.58;24.00;;;;;;;21.89;nan;99064.72;4764773;29;20068;-64
2023/12/04 10:16:59;;;;;;;36.60;22.33;;;;;;;21.91;nan;99067.94;4765439;29;20189;-63
2023/12/04 10:19:29;;;;;;;30.73;21.85;;;;;;;21.89;nan;99061.19;4774031;29;20059;-63
2023/12/04 10:22:00;;;;;;;30.23;22.75;;;;;;;21.77;nan;99061.38;4780074;29;20128;-63
2023/12/04 10:24:38;;;;;;;38.70;22.83;;;;;;;21.80;nan;99051.94;4763769;29;20059;-63
2023/12/04 10:27:12;;;;;;;33.33;21.42;;;;;;;21.74;nan;99051.09;4766131;29;20051;-63
2023/12/04 10:29:45;;;;;;;33.42;21.65;;;;;;;21.70;nan;99041.06;4774942;29;20150;-63
2023/12/04 10:32:23;;;;;;;34.10;22.15;;;;;;;21.64;nan;99045.59;4779073;29;20746;-63
2023/12/04 10:34:55;;;;;;;37.00;21.25;;;;;;;21.66;nan;99039.94;4761987;30;20148;-64
2023/12/04 10:37:25;;;;;;;27.55;19.20;;;;;;;21.59;nan;99039.34;4762085;29;20051;-63
2023/12/04 10:39:55;;;;;;;32.35;19.55;;;;;;;21.49;nan;99043.59;4774135;29;20582;-63
2023/12/04 10:42:30;;;;;;;30.23;18.80;;;;;;;21.44;nan;99027.34;4756556;30;20532;-63
2023/12/04 10:44:59;;;;;;;25.30;17.08;;;;;;;21.34;nan;99027.25;4775732;30;20055;-63
2023/12/04 10:47:33;;;;;;;26.00;18.23;;;;;;;21.26;nan;99032.28;4765366;30;20146;-63
2023/12/04 10:50:03;;;;;;;27.95;19.02;;;;;;;21.19;nan;99028.97;4764865;30;20534;-63
2023/12/04 10:52:36;;;;;;;26.25;18.05;;;;;;;21.19;nan;99023.59;4761726;30;20052;-63
2023/12/04 10:55:08;;;;;;;28.48;19.60;;;;;;;21.12;nan;99031.81;4779314;29;20051;-63
2023/12/04 10:57:39;;;;;;;27.40;18.63;;;;;;;20.99;nan;99033.03;4771111;29;20128;-63
2023/12/04 11:00:11;;;;;;;32.20;20.23;;;;;;;20.88;nan;99023.22;4774361;30;20152;-63
2023/12/04 11:02:46;;;;;;;31.73;19.88;;;;;;;20.81;nan;99019.88;4768999;30;20933;-63
2023/12/04 11:05:21;;;;;;;26.65;18.90;;;;;;;20.77;nan;99017.94;4776551;29;20055;-64
2023/12/04 11:08:01;;;;;;;31.95;19.30;;;;;;;20.73;nan;99028.41;4776541;29;20108;-63
2023/12/04 11:10:59;;;;;;;30.83;19.45;;;;;;;20.67;nan;99021.31;4782592;29;20097;-65
2023/12/04 11:13:32;;;;;;;39.92;20.67;;;;;;;20.61;nan;99028.53;4771552;30;20132;-64
2023/12/04 11:16:09;;;;;;;53.15;24.48;;;;;;;20.44;nan;99027.75;4764274;30;20156;-63
2023/12/04 11:18:44;;;;;;;64.10;24.10;;;;;;;20.39;nan;99030.38;4767051;29;20055;-64
2023/12/04 11:21:15;;;;;;;52.28;23.88;;;;;;;20.26;nan;99021.81;4772166;30;20058;-63
2023/12/04 11:23:45;;;;;;;50.42;23.75;;;;;;;20.04;nan;99021.75;4772830;29;20062;-63
2023/12/04 11:26:15;;;;;;;42.80;23.13;;;;;;;20.01;nan;99016.84;4764280;30;20759;-63
2023/12/04 11:28:45;;;;;;;49.17;24.17;;;;;;;20.02;nan;99010.41;4775593;29;20062;-63
2023/12/04 11:31:16;;;;;;;38.78;22.90;;;;;;;19.94;nan;99003.59;4782265;29;20083;-64
2023/12/04 11:33:45;;;;;;;44.97;24.00;;;;;;;19.86;nan;99012.06;4772510;29;20051;-63
2023/12/04 11:36:16;;;;;;;44.15;25.38;;;;;;;19.85;nan;99021.19;4761607;30;20134;-63
2023/12/04 11:38:48;;;;;;;44.92;26.92;;;;;;;19.80;nan;99029.16;4770716;29;20055;-63
2023/12/04 11:41:23;;;;;;;43.78;26.92;;;;;;;19.65;nan;99020.84;4781367;29;20144;-63
2023/12/04 11:43:58;;;;;;;40.80;26.95;;;;;;;19.54;nan;99017.19;4771877;29;20252;-64